Time,TemperatureF,DewpointF,PressureIn,WindDirection,WindDirectionDegrees,WindSpeedMPH,WindSpeedGustMPH,Humidity,HourlyPrecipIn,Conditions,Clouds,dailyrainin,SolarRadiationWatts/m^2,SoftwareType,DateUTC
2013-04-01 00:00:00,55.8,55.8,30.03,South,180,0.0,6.0,100,0.00,,,0.00,0.00,VWS V14.01,2013-04-01 07:00:00,
2013-04-01 00:03:00,55.8,55.8,30.03,WNW,292,2.5,3.4,100,0.00,,,0.00,0.00,VWS V14.01,2013-04-01 07:03:00,
2013-04-01 00:08:00,55.6,55.6,30.03,South,180,0.9,3.4,100,0.00,,,0.00,0.00,VWS V14.01,2013-04-01 07:08:00,
2013-04-01 00:13:00,55.4,55.4,30.03,SSW,202,2.0,4.9,100,0.05,,,0.05,0.00,VWS V14.01,2013-04-01 07:13:00,
2013-04-01 00:15:00,55.4,55.4,30.03,SW,225,4.0,4.9,100,0.05,,,0.05,0.00,VWS V14.01,2013-04-01 07:15:00,
2013-04-01 00:18:00,55.2,55.2,30.03,SE,135,0.0,4.0,100,0.05,,,0.05,0.00,VWS V14.01,2013-04-01 07:18:00,
2013-04-01 00:23:00,55.2,55.2,30.03,SSW,202,0.9,4.0,100,0.09,,,0.09,0.00,VWS V14.01,2013-04-01 07:23:00,
2013-04-01 00:28:00,55.2,55.2,30.03,SSW,202,2.7,8.7,100,0.13,,,0.13,0.00,VWS V14.01,2013-04-01 07:28:00,
2013-04-01 00:30:00,55.2,55.2,30.03,East,90,2.0,8.7,100,0.13,,,0.13,0.00,VWS V14.01,2013-04-01 07:30:00,
2013-04-01 00:33:00,55.2,55.2,30.03,ESE,112,0.0,2.2,100,0.13,,,0.13,0.00,VWS V14.01,2013-04-01 07:33:00,
2013-04-01 00:38:00,55.2,55.2,30.03,ENE,68,6.3,6.5,100,0.13,,,0.13,0.00,VWS V14.01,2013-04-01 07:38:00,
2013-04-01 00:43:00,55.2,55.2,30.03,SW,225,3.1,6.9,100,0.13,,,0.13,0.00,VWS V14.01,2013-04-01 07:43:00,
2013-04-01 00:45:00,55.2,55.2,30.03,WSW,248,6.3,6.9,100,0.13,,,0.13,0.00,VWS V14.01,2013-04-01 07:45:00,
2013-04-01 00:48:00,55.2,55.2,30.03,SSW,202,2.2,8.7,100,0.13,,,0.13,0.00,VWS V14.01,2013-04-01 07:48:00,
2013-04-01 00:53:00,55.2,55.2,30.03,ESE,112,2.0,8.7,100,0.13,,,0.13,0.00,VWS V14.01,2013-04-01 07:53:00,
2013-04-01 00:59:00,55.2,55.2,30.03,NNW,338,2.7,8.7,100,0.13,,,0.13,0.00,VWS V14.01,2013-04-01 07:59:00,
2013-04-01 01:00:00,55.2,55.2,30.03,ENE,68,1.6,8.7,100,0.13,,,0.13,0.00,VWS V14.01,2013-04-01 08:00:00,
2013-04-01 01:04:00,55.2,55.2,30.03,South,180,2.2,4.7,100,0.13,,,0.13,0.00,VWS V14.01,2013-04-01 08:04:00,
2013-04-01 01:09:00,55.2,55.2,30.03,East,90,2.5,6.3,100,0.13,,,0.13,0.00,VWS V14.01,2013-04-01 08:09:00,
2013-04-01 01:14:00,55.2,55.2,30.03,NE,45,3.8,6.3,100,0.13,,,0.13,0.00,VWS V14.01,2013-04-01 08:14:00,
2013-04-01 01:15:00,55.2,55.2,30.03,WSW,248,0.0,6.3,100,0.13,,,0.13,0.00,VWS V14.01,2013-04-01 08:15:00,
2013-04-01 01:19:00,55.2,55.2,30.03,SW,225,2.5,3.8,100,0.08,,,0.13,0.00,VWS V14.01,2013-04-01 08:19:00,
2013-04-01 01:24:00,55.2,55.2,30.03,SSE,158,3.1,6.5,100,0.08,,,0.13,0.00,VWS V14.01,2013-04-01 08:24:00,
2013-04-01 01:29:00,55.2,55.2,30.03,South,180,2.2,7.4,100,0.08,,,0.13,0.00,VWS V14.01,2013-04-01 08:29:00,
2013-04-01 01:30:00,55.2,55.2,30.03,ENE,68,0.0,7.4,100,0.08,,,0.13,0.00,VWS V14.01,2013-04-01 08:30:00,
2013-04-01 01:34:00,55.2,55.2,30.03,WNW,292,0.0,6.0,100,0.00,,,0.13,0.00,VWS V14.01,2013-04-01 08:34:00,
2013-04-01 01:39:00,55.2,55.2,30.03,WNW,292,0.0,6.0,100,0.00,,,0.13,0.00,VWS V14.01,2013-04-01 08:39:00,
2013-04-01 01:44:00,55.2,55.2,30.03,SE,135,2.9,6.3,100,0.00,,,0.13,0.00,VWS V14.01,2013-04-01 08:44:00,
2013-04-01 01:45:00,55.2,55.2,30.03,SE,135,2.9,6.3,100,0.00,,,0.13,0.00,VWS V14.01,2013-04-01 08:45:00,
2013-04-01 01:49:00,55.2,55.2,30.03,WSW,248,0.9,4.3,100,0.00,,,0.13,0.00,VWS V14.01,2013-04-01 08:49:00,
2013-04-01 01:55:00,55.2,55.2,30.03,SSW,202,1.6,4.3,100,0.00,,,0.13,0.00,VWS V14.01,2013-04-01 08:55:00,
2013-04-01 02:00:00,55.2,55.2,30.03,South,180,1.3,5.6,100,0.00,,,0.13,0.00,VWS V14.01,2013-04-01 09:00:00,
2013-04-01 02:05:00,55.2,55.2,30.03,SW,225,4.0,4.3,100,0.00,,,0.13,0.00,VWS V14.01,2013-04-01 09:05:00,
2013-04-01 02:10:00,55.2,55.2,30.03,SSW,202,2.0,4.3,100,0.00,,,0.13,0.00,VWS V14.01,2013-04-01 09:10:00,
2013-04-01 02:15:00,55.2,55.2,30.03,SSE,158,0.0,0.0,100,0.00,,,0.13,0.00,VWS V14.01,2013-04-01 09:15:00,
2013-04-01 02:20:00,55.2,55.2,30.03,SW,225,3.8,4.3,100,0.00,,,0.13,0.00,VWS V14.01,2013-04-01 09:20:00,
2013-04-01 02:25:00,55.2,55.2,30.03,North,0,1.1,4.3,100,0.00,,,0.13,0.00,VWS V14.01,2013-04-01 09:25:00,
2013-04-01 02:30:00,55.2,55.2,30.03,NE,45,2.9,4.3,100,0.00,,,0.13,0.00,VWS V14.01,2013-04-01 09:30:00,
2013-04-01 02:35:00,55.2,55.2,30.03,South,180,4.3,4.3,100,0.00,,,0.13,0.00,VWS V14.01,2013-04-01 09:35:00,
2013-04-01 02:40:00,55.2,55.2,30.03,South,180,2.2,5.4,100,0.00,,,0.13,0.00,VWS V14.01,2013-04-01 09:40:00,
2013-04-01 02:45:00,55.2,55.2,30.03,SSE,158,0.0,0.0,100,0.00,,,0.13,0.00,VWS V14.01,2013-04-01 09:45:00,
2013-04-01 02:52:00,55.2,55.2,30.03,SE,135,1.3,2.0,100,0.00,,,0.13,0.00,VWS V14.01,2013-04-01 09:52:00,
2013-04-01 02:57:00,55.2,55.2,30.03,SSW,202,0.0,3.4,100,0.00,,,0.13,0.00,VWS V14.01,2013-04-01 09:57:00,
2013-04-01 03:00:00,55.2,55.2,30.03,South,180,0.0,3.4,100,0.00,,,0.13,0.00,VWS V14.01,2013-04-01 10:00:00,
2013-04-01 03:02:00,55.2,55.2,30.03,South,180,0.0,1.1,100,0.00,,,0.13,0.00,VWS V14.01,2013-04-01 10:02:00,
2013-04-01 03:09:00,55.2,55.2,30.03,SSW,202,2.7,4.3,100,0.00,,,0.13,0.00,VWS V14.01,2013-04-01 10:09:00,
2013-04-01 03:14:00,54.9,54.9,30.03,South,180,1.3,5.6,100,0.00,,,0.13,0.00,VWS V14.01,2013-04-01 10:14:00,
2013-04-01 03:15:00,54.9,54.9,30.03,SW,225,1.6,5.6,100,0.00,,,0.13,0.00,VWS V14.01,2013-04-01 10:15:00,
2013-04-01 03:19:00,54.9,54.9,30.03,WSW,248,0.0,3.4,100,0.00,,,0.13,0.00,VWS V14.01,2013-04-01 10:19:00,
2013-04-01 03:24:00,54.9,54.9,30.03,South,180,0.0,3.4,100,0.00,,,0.13,0.00,VWS V14.01,2013-04-01 10:24:00,
2013-04-01 03:29:00,54.9,54.9,30.03,SSW,202,0.0,4.0,100,0.00,,,0.13,0.00,VWS V14.01,2013-04-01 10:29:00,
2013-04-01 03:30:00,54.9,54.9,30.03,South,180,0.0,4.0,100,0.00,,,0.13,0.00,VWS V14.01,2013-04-01 10:30:00,
2013-04-01 03:35:00,54.9,54.9,30.03,South,180,0.0,1.1,100,0.00,,,0.13,0.00,VWS V14.01,2013-04-01 10:35:00,
2013-04-01 03:40:00,55.0,55.0,30.03,South,180,0.0,1.1,100,0.00,,,0.13,0.00,VWS V14.01,2013-04-01 10:40:00,
2013-04-01 03:45:00,55.0,55.0,30.03,South,180,1.1,1.1,100,0.00,,,0.13,0.00,VWS V14.01,2013-04-01 10:45:00,
2013-04-01 03:50:00,54.9,54.9,30.03,South,180,0.0,1.1,100,0.00,,,0.13,0.00,VWS V14.01,2013-04-01 10:50:00,
2013-04-01 03:57:00,54.9,54.9,30.03,SSW,202,3.6,3.6,100,0.00,,,0.13,0.00,VWS V14.01,2013-04-01 10:57:00,
2013-04-01 04:00:00,54.9,54.9,30.03,SW,225,0.0,3.6,100,0.00,,,0.13,0.00,VWS V14.01,2013-04-01 11:00:00,
2013-04-01 04:02:00,54.9,54.9,30.03,WSW,248,0.0,0.9,100,0.00,,,0.13,0.00,VWS V14.01,2013-04-01 11:02:00,
2013-04-01 04:07:00,54.9,54.9,30.03,South,180,2.2,2.7,100,0.00,,,0.13,0.00,VWS V14.01,2013-04-01 11:07:00,
2013-04-01 04:12:00,55.0,55.0,30.03,SSW,202,1.1,3.1,100,0.00,,,0.13,0.00,VWS V14.01,2013-04-01 11:12:00,
2013-04-01 04:15:00,55.0,55.0,30.03,SSE,158,1.1,3.6,100,0.00,,,0.13,0.00,VWS V14.01,2013-04-01 11:15:00,
2013-04-01 04:17:00,54.9,54.9,30.03,SW,225,2.7,2.7,100,0.00,,,0.13,0.00,VWS V14.01,2013-04-01 11:17:00,
2013-04-01 04:23:00,54.9,54.9,30.03,SSW,202,1.1,3.6,100,0.00,,,0.13,0.00,VWS V14.01,2013-04-01 11:23:00,
2013-04-01 04:28:00,55.0,55.0,30.03,SSW,202,0.0,3.6,100,0.00,,,0.13,0.00,VWS V14.01,2013-04-01 11:28:00,
2013-04-01 04:30:00,55.0,55.0,30.03,SSW,202,0.0,3.6,100,0.00,,,0.13,0.00,VWS V14.01,2013-04-01 11:30:00,
2013-04-01 04:33:00,55.0,55.0,30.03,SSW,202,1.3,2.5,100,0.00,,,0.13,0.00,VWS V14.01,2013-04-01 11:33:00,
2013-04-01 04:38:00,54.9,54.9,30.03,South,180,0.0,2.7,100,0.00,,,0.13,0.00,VWS V14.01,2013-04-01 11:38:00,
2013-04-01 04:43:00,55.0,55.0,30.03,South,180,0.0,2.7,100,0.00,,,0.13,0.00,VWS V14.01,2013-04-01 11:43:00,
2013-04-01 04:45:00,55.0,55.0,30.03,South,180,0.0,2.7,100,0.00,,,0.13,0.00,VWS V14.01,2013-04-01 11:45:00,
2013-04-01 04:48:00,55.0,55.0,30.03,South,180,0.0,0.0,100,0.00,,,0.13,0.00,VWS V14.01,2013-04-01 11:48:00,
2013-04-01 04:54:00,54.9,54.9,30.03,South,180,0.0,2.0,100,0.00,,,0.13,0.00,VWS V14.01,2013-04-01 11:54:00,
2013-04-01 04:59:00,54.9,54.9,30.03,South,180,0.0,2.0,100,0.04,,,0.17,0.00,VWS V14.01,2013-04-01 11:59:00,
2013-04-01 05:00:00,54.9,54.9,30.03,South,180,0.0,2.0,100,0.04,,,0.17,0.00,VWS V14.01,2013-04-01 12:00:00,
2013-04-01 05:04:00,54.9,54.9,30.03,South,180,0.0,0.0,100,0.04,,,0.17,0.00,VWS V14.01,2013-04-01 12:04:00,
2013-04-01 05:09:00,55.0,55.0,30.03,South,180,0.0,0.0,100,0.04,,,0.17,0.00,VWS V14.01,2013-04-01 12:09:00,
2013-04-01 05:14:00,54.9,54.9,30.03,South,180,0.0,0.0,100,0.04,,,0.17,0.00,VWS V14.01,2013-04-01 12:14:00,
2013-04-01 05:15:00,54.9,54.9,30.03,South,180,0.0,0.0,100,0.04,,,0.17,0.00,VWS V14.01,2013-04-01 12:15:00,
2013-04-01 05:19:00,54.9,54.9,30.03,South,180,0.0,0.0,100,0.04,,,0.17,0.00,VWS V14.01,2013-04-01 12:19:00,
2013-04-01 05:24:00,54.9,54.9,30.06,South,180,0.0,1.6,100,0.04,,,0.17,0.00,VWS V14.01,2013-04-01 12:24:00,
2013-04-01 05:29:00,54.9,54.9,30.06,South,180,0.0,1.6,100,0.04,,,0.17,0.00,VWS V14.01,2013-04-01 12:29:00,
2013-04-01 05:30:00,54.9,54.9,30.06,South,180,0.0,1.6,100,0.04,,,0.17,0.00,VWS V14.01,2013-04-01 12:30:00,
2013-04-01 05:34:00,54.7,54.7,30.06,North,0,0.0,2.5,100,0.04,,,0.17,0.00,VWS V14.01,2013-04-01 12:34:00,
2013-04-01 05:39:00,54.7,54.7,30.03,SE,135,0.0,2.9,100,0.04,,,0.17,0.00,VWS V14.01,2013-04-01 12:39:00,
2013-04-01 05:44:00,54.9,54.9,30.03,SE,135,0.0,2.9,100,0.04,,,0.17,0.00,VWS V14.01,2013-04-01 12:44:00,
2013-04-01 05:45:00,54.9,54.9,30.03,SE,135,0.0,2.9,100,0.04,,,0.17,0.00,VWS V14.01,2013-04-01 12:45:00,
2013-04-01 05:49:00,54.9,54.9,30.03,South,180,0.0,3.4,100,0.04,,,0.17,0.00,VWS V14.01,2013-04-01 12:49:00,
2013-04-01 05:54:00,54.9,54.9,30.03,South,180,0.0,3.4,100,0.04,,,0.17,0.00,VWS V14.01,2013-04-01 12:54:00,
2013-04-01 06:00:00,54.9,54.9,30.03,South,180,0.0,3.4,100,0.04,,,0.17,0.00,VWS V14.01,2013-04-01 13:00:00,
2013-04-01 06:05:00,54.9,54.9,30.03,South,180,0.0,1.6,100,0.00,,,0.17,0.00,VWS V14.01,2013-04-01 13:05:00,
2013-04-01 06:10:00,54.7,54.7,30.06,South,180,1.6,2.7,100,0.00,,,0.17,0.00,VWS V14.01,2013-04-01 13:10:00,
2013-04-01 06:15:00,54.7,54.7,30.06,SSE,158,0.0,0.0,100,0.00,,,0.17,0.00,VWS V14.01,2013-04-01 13:15:00,
2013-04-01 06:20:00,54.5,54.5,30.06,SE,135,0.0,3.8,100,0.00,,,0.17,0.00,VWS V14.01,2013-04-01 13:20:00,
2013-04-01 06:25:00,54.7,54.7,30.03,SE,135,0.0,3.8,100,0.00,,,0.17,0.00,VWS V14.01,2013-04-01 13:25:00,
2013-04-01 06:30:00,54.5,54.5,30.03,North,0,0.0,0.0,100,0.00,,,0.17,0.00,VWS V14.01,2013-04-01 13:30:00,
2013-04-01 06:35:00,54.5,54.5,30.03,NNW,338,0.0,0.0,100,0.00,,,0.17,0.00,VWS V14.01,2013-04-01 13:35:00,
2013-04-01 06:41:00,54.5,54.5,30.06,SSE,158,0.0,1.1,100,0.00,,,0.17,0.00,VWS V14.01,2013-04-01 13:41:00,
2013-04-01 06:45:00,54.5,54.5,30.06,SSE,158,0.0,2.0,100,0.00,,,0.17,0.00,VWS V14.01,2013-04-01 13:45:00,
2013-04-01 06:46:00,54.5,54.5,30.06,SSE,158,0.0,0.0,100,0.00,,,0.17,0.00,VWS V14.01,2013-04-01 13:46:00,
2013-04-01 06:51:00,54.5,54.5,30.06,SE,135,0.0,1.1,100,0.00,,,0.17,0.00,VWS V14.01,2013-04-01 13:51:00,
2013-04-01 06:57:00,54.5,54.5,30.06,SE,135,0.0,1.1,100,0.00,,,0.17,0.00,VWS V14.01,2013-04-01 13:57:00,
2013-04-01 07:00:00,54.5,54.5,30.06,SE,135,0.0,1.1,100,0.00,,,0.17,0.00,VWS V14.01,2013-04-01 14:00:00,
2013-04-01 07:02:00,54.7,54.7,30.06,SE,135,0.0,0.0,100,0.00,,,0.17,0.00,VWS V14.01,2013-04-01 14:02:00,
2013-04-01 07:07:00,54.7,54.7,30.06,SE,135,0.0,0.0,100,0.04,,,0.21,0.00,VWS V14.01,2013-04-01 14:07:00,
2013-04-01 07:12:00,54.7,54.7,30.06,SE,135,0.0,0.0,100,0.04,,,0.21,0.00,VWS V14.01,2013-04-01 14:12:00,
2013-04-01 07:15:00,54.5,54.5,30.06,SE,135,0.0,0.0,100,0.04,,,0.21,0.00,VWS V14.01,2013-04-01 14:15:00,
2013-04-01 07:18:00,54.5,54.5,30.06,SE,135,0.0,0.0,100,0.08,,,0.25,0.00,VWS V14.01,2013-04-01 14:18:00,
2013-04-01 07:23:00,54.5,54.5,30.06,SE,135,0.0,0.0,100,0.08,,,0.25,0.00,VWS V14.01,2013-04-01 14:23:00,
2013-04-01 07:28:00,54.5,54.5,30.06,North,0,0.0,0.0,100,0.12,,,0.29,0.00,VWS V14.01,2013-04-01 14:28:00,
2013-04-01 07:30:00,54.5,54.5,30.06,North,0,0.0,0.0,100,0.12,,,0.29,0.00,VWS V14.01,2013-04-01 14:30:00,
2013-04-01 07:33:00,54.5,54.5,30.06,North,0,0.0,0.0,100,0.12,,,0.29,0.00,VWS V14.01,2013-04-01 14:33:00,
2013-04-01 07:38:00,54.5,54.5,30.09,North,0,0.0,0.0,100,0.16,,,0.33,0.00,VWS V14.01,2013-04-01 14:38:00,
2013-04-01 07:43:00,54.7,54.7,30.09,North,0,0.0,0.0,100,0.21,,,0.38,0.00,VWS V14.01,2013-04-01 14:43:00,
2013-04-01 07:45:00,54.9,54.9,30.09,North,0,0.0,0.0,100,0.21,,,0.38,0.00,VWS V14.01,2013-04-01 14:45:00,
2013-04-01 07:48:00,54.9,54.9,30.09,North,0,0.0,0.0,100,0.25,,,0.42,0.00,VWS V14.01,2013-04-01 14:48:00,
2013-04-01 07:53:00,54.9,54.9,30.09,North,0,0.0,0.0,100,0.25,,,0.42,0.00,VWS V14.01,2013-04-01 14:53:00,
2013-04-01 07:58:00,54.9,54.9,30.09,East,90,1.1,1.1,100,0.29,,,0.46,0.00,VWS V14.01,2013-04-01 14:58:00,
2013-04-01 08:00:00,54.9,54.9,30.09,East,90,0.0,1.1,100,0.29,,,0.46,0.00,VWS V14.01,2013-04-01 15:00:00,
2013-04-01 08:03:00,54.9,54.9,30.09,East,90,0.0,1.1,100,0.29,,,0.46,0.00,VWS V14.01,2013-04-01 15:03:00,
2013-04-01 08:08:00,54.7,54.7,30.09,East,90,0.0,1.1,100,0.33,,,0.50,0.00,VWS V14.01,2013-04-01 15:08:00,
2013-04-01 08:13:00,54.9,54.9,30.09,East,90,0.0,1.1,100,0.33,,,0.50,0.00,VWS V14.01,2013-04-01 15:13:00,
2013-04-01 08:15:00,54.9,54.9,30.09,East,90,0.0,1.1,100,0.33,,,0.50,0.00,VWS V14.01,2013-04-01 15:15:00,
2013-04-01 08:19:00,54.9,54.9,30.09,East,90,0.0,0.0,100,0.29,,,0.50,0.00,VWS V14.01,2013-04-01 15:19:00,
2013-04-01 08:24:00,55.0,55.0,30.09,East,90,0.0,0.0,100,0.29,,,0.50,0.00,VWS V14.01,2013-04-01 15:24:00,
2013-04-01 08:29:00,55.2,55.2,30.09,East,90,0.0,0.0,100,0.33,,,0.54,0.00,VWS V14.01,2013-04-01 15:29:00,
2013-04-01 08:30:00,55.2,55.2,30.09,East,90,0.0,0.9,100,0.33,,,0.54,0.00,VWS V14.01,2013-04-01 15:30:00,
2013-04-01 08:34:00,55.0,55.0,30.09,East,90,0.9,2.0,100,0.25,,,0.54,0.00,VWS V14.01,2013-04-01 15:34:00,
2013-04-01 08:39:00,55.0,55.0,30.12,East,90,0.0,2.0,100,0.25,,,0.54,0.00,VWS V14.01,2013-04-01 15:39:00,
2013-04-01 08:45:00,55.0,55.0,30.12,North,0,0.0,2.0,100,0.25,,,0.54,0.00,VWS V14.01,2013-04-01 15:45:00,
2013-04-01 08:50:00,55.0,55.0,30.12,NE,45,0.0,1.6,100,0.16,,,0.54,0.00,VWS V14.01,2013-04-01 15:50:00,
2013-04-01 08:55:00,55.2,55.2,30.12,ENE,68,0.0,1.6,100,0.16,,,0.54,0.00,VWS V14.01,2013-04-01 15:55:00,
2013-04-01 09:00:00,55.4,55.4,30.12,ENE,68,0.0,2.0,100,0.16,,,0.54,0.00,VWS V14.01,2013-04-01 16:00:00,
2013-04-01 09:01:00,55.2,55.2,30.12,ENE,68,0.0,1.1,100,0.08,,,0.54,0.00,VWS V14.01,2013-04-01 16:01:00,
2013-04-01 09:06:00,55.2,55.2,30.12,East,90,0.9,1.6,100,0.08,,,0.54,0.00,VWS V14.01,2013-04-01 16:06:00,
2013-04-01 09:12:00,55.0,55.0,30.12,ENE,68,0.0,2.7,100,0.08,,,0.54,0.00,VWS V14.01,2013-04-01 16:12:00,
2013-04-01 09:15:00,55.2,55.2,30.12,ENE,68,1.3,2.7,100,0.08,,,0.54,0.00,VWS V14.01,2013-04-01 16:15:00,
2013-04-01 09:17:00,55.0,55.0,30.12,NE,45,0.0,2.5,100,0.04,,,0.54,0.00,VWS V14.01,2013-04-01 16:17:00,
2013-04-01 09:22:00,55.0,55.0,30.12,NE,45,0.9,2.5,100,0.04,,,0.54,0.00,VWS V14.01,2013-04-01 16:22:00,
2013-04-01 09:28:00,55.2,55.2,30.12,NE,45,0.0,2.5,100,0.04,,,0.54,0.00,VWS V14.01,2013-04-01 16:28:00,
2013-04-01 09:30:00,55.4,55.4,30.12,NE,45,0.0,2.5,100,0.04,,,0.54,0.00,VWS V14.01,2013-04-01 16:30:00,
2013-04-01 09:33:00,55.6,55.6,30.12,ENE,68,2.0,2.2,100,0.00,,,0.54,0.00,VWS V14.01,2013-04-01 16:33:00,
2013-04-01 09:38:00,55.8,55.8,30.15,East,90,1.6,2.7,100,0.00,,,0.54,0.00,VWS V14.01,2013-04-01 16:38:00,
2013-04-01 09:43:00,55.9,55.9,30.15,NE,45,1.1,2.7,100,0.00,,,0.54,0.00,VWS V14.01,2013-04-01 16:43:00,
2013-04-01 09:45:00,55.9,55.9,30.15,East,90,1.6,2.7,100,0.00,,,0.54,0.00,VWS V14.01,2013-04-01 16:45:00,
2013-04-01 09:48:00,56.3,56.3,30.15,ENE,68,2.5,4.0,100,0.00,,,0.54,0.00,VWS V14.01,2013-04-01 16:48:00,
2013-04-01 09:53:00,56.3,56.3,30.15,East,90,0.0,4.0,100,0.00,,,0.54,0.00,VWS V14.01,2013-04-01 16:53:00,
2013-04-01 09:59:00,56.7,56.7,30.15,East,90,0.0,4.0,100,0.00,,,0.54,0.00,VWS V14.01,2013-04-01 16:59:00,
2013-04-01 10:00:00,56.7,56.7,30.15,East,90,0.0,4.0,100,0.00,,,0.54,0.00,VWS V14.01,2013-04-01 17:00:00,
2013-04-01 10:04:00,56.8,56.8,30.15,NE,45,1.6,2.2,100,0.00,,,0.54,0.00,VWS V14.01,2013-04-01 17:04:00,
2013-04-01 10:09:00,57.2,57.2,30.15,ENE,68,0.0,2.2,100,0.00,,,0.54,0.00,VWS V14.01,2013-04-01 17:09:00,
2013-04-01 10:15:00,57.0,57.0,30.15,SSE,158,1.3,1.6,100,0.00,,,0.54,0.00,VWS V14.01,2013-04-01 17:15:00,
2013-04-01 10:20:00,57.0,57.0,30.15,SSE,158,1.6,6.3,100,0.00,,,0.54,0.00,VWS V14.01,2013-04-01 17:20:00,
2013-04-01 10:25:00,57.4,57.4,30.15,SSW,202,3.4,6.3,100,0.00,,,0.54,0.00,VWS V14.01,2013-04-01 17:25:00,
2013-04-01 10:30:00,57.2,56.9,30.15,SSW,202,4.0,5.6,99,0.00,,,0.54,0.00,VWS V14.01,2013-04-01 17:30:00,
2013-04-01 10:36:00,57.4,57.1,30.15,SE,135,5.6,6.5,99,0.00,,,0.54,0.00,VWS V14.01,2013-04-01 17:36:00,
2013-04-01 10:41:00,57.4,57.1,30.15,SSE,158,1.6,6.5,99,0.00,,,0.54,0.00,VWS V14.01,2013-04-01 17:41:00,
2013-04-01 10:45:00,57.2,56.6,30.15,East,90,2.0,6.5,98,0.00,,,0.54,0.00,VWS V14.01,2013-04-01 17:45:00,
2013-04-01 10:46:00,57.2,56.6,30.15,SW,225,5.4,5.4,98,0.00,,,0.54,0.00,VWS V14.01,2013-04-01 17:46:00,
2013-04-01 10:52:00,57.0,56.5,30.15,SSW,202,2.7,7.6,98,0.00,,,0.54,0.00,VWS V14.01,2013-04-01 17:52:00,
2013-04-01 10:57:00,57.6,57.3,30.15,SSE,158,3.4,7.6,99,0.00,,,0.54,0.00,VWS V14.01,2013-04-01 17:57:00,
2013-04-01 11:00:00,57.9,57.4,30.15,NE,45,0.9,7.6,98,0.00,,,0.54,0.00,VWS V14.01,2013-04-01 18:00:00,
2013-04-01 11:02:00,58.3,57.4,30.15,SE,135,5.4,5.4,97,0.00,,,0.00,0.00,VWS V14.01,2013-04-01 18:02:00,
2013-04-01 11:07:00,58.1,57.3,30.15,SW,225,2.0,6.5,97,0.00,,,0.62,0.00,VWS V14.01,2013-04-01 18:07:00,
2013-04-01 11:12:00,58.3,57.7,30.15,SSE,158,5.8,6.5,98,0.00,,,0.62,0.00,VWS V14.01,2013-04-01 18:12:00,
2013-04-01 11:15:00,57.9,57.1,30.15,SE,135,2.5,6.5,97,0.00,,,0.62,0.00,VWS V14.01,2013-04-01 18:15:00,
2013-04-01 11:18:00,57.9,56.8,30.15,SE,135,2.5,4.3,96,0.00,,,0.62,0.00,VWS V14.01,2013-04-01 18:18:00,
2013-04-01 11:23:00,57.9,56.5,30.15,ESE,112,1.6,6.0,95,0.00,,,0.62,0.00,VWS V14.01,2013-04-01 18:23:00,
2013-04-01 11:28:00,57.7,56.3,30.15,ESE,112,6.0,8.5,95,0.00,,,0.62,0.00,VWS V14.01,2013-04-01 18:28:00,
2013-04-01 11:30:00,57.9,56.2,30.15,SSE,158,1.6,8.5,94,0.00,,,0.62,0.00,VWS V14.01,2013-04-01 18:30:00,
2013-04-01 11:33:00,57.7,56.0,30.15,SSW,202,5.4,7.6,94,0.00,,,0.62,0.00,VWS V14.01,2013-04-01 18:33:00,
2013-04-01 11:38:00,57.6,55.8,30.18,SSW,202,3.6,8.5,94,0.00,,,0.62,0.00,VWS V14.01,2013-04-01 18:38:00,
2013-04-01 11:43:00,57.7,56.0,30.18,East,90,0.0,8.5,94,0.00,,,0.62,0.00,VWS V14.01,2013-04-01 18:43:00,
2013-04-01 11:45:00,58.1,56.4,30.18,SE,135,2.7,8.5,94,0.00,,,0.62,0.00,VWS V14.01,2013-04-01 18:45:00,
2013-04-01 11:48:00,57.6,55.6,30.18,WNW,292,1.6,7.8,93,0.00,,,0.62,0.00,VWS V14.01,2013-04-01 18:48:00,
2013-04-01 11:53:00,57.7,56.0,30.15,SE,135,3.1,7.8,94,0.00,,,0.62,0.00,VWS V14.01,2013-04-01 18:53:00,
2013-04-01 11:58:00,57.6,55.6,30.15,SSE,158,2.9,7.8,93,0.00,,,0.62,0.00,VWS V14.01,2013-04-01 18:58:00,
2013-04-01 12:00:00,57.6,55.8,30.15,WSW,248,3.4,7.8,94,0.00,,,0.62,0.00,VWS V14.01,2013-04-01 19:00:00,
2013-04-01 12:04:00,58.1,56.4,30.15,SSW,202,5.4,5.4,94,0.00,,,0.62,0.00,VWS V14.01,2013-04-01 19:04:00,
2013-04-01 12:09:00,58.1,56.4,30.15,SW,225,3.8,8.5,94,0.05,,,0.67,0.00,VWS V14.01,2013-04-01 19:09:00,
2013-04-01 12:14:00,58.6,56.3,30.15,SSW,202,7.4,8.7,92,0.05,,,0.67,0.00,VWS V14.01,2013-04-01 19:14:00,
2013-04-01 12:15:00,58.8,56.2,30.15,SW,225,1.3,8.7,91,0.05,,,0.67,0.00,VWS V14.01,2013-04-01 19:15:00,
2013-04-01 12:19:00,59.0,56.1,30.15,SSE,158,4.3,7.6,90,0.05,,,0.67,0.00,VWS V14.01,2013-04-01 19:19:00,
2013-04-01 12:24:00,60.3,57.3,30.18,SE,135,5.4,7.6,90,0.05,,,0.67,0.00,VWS V14.01,2013-04-01 19:24:00,
2013-04-01 12:29:00,59.7,55.8,30.18,SSE,158,5.4,7.6,87,0.05,,,0.67,0.00,VWS V14.01,2013-04-01 19:29:00,
2013-04-01 12:30:00,59.7,55.5,30.18,SE,135,4.3,7.6,86,0.05,,,0.67,0.00,VWS V14.01,2013-04-01 19:30:00,
2013-04-01 12:35:00,60.1,55.9,30.18,ESE,112,4.9,8.5,86,0.05,,,0.67,0.00,VWS V14.01,2013-04-01 19:35:00,
2013-04-01 12:40:00,60.4,56.2,30.15,SE,135,8.1,12.3,86,0.05,,,0.67,0.00,VWS V14.01,2013-04-01 19:40:00,
2013-04-01 12:45:00,61.0,56.5,30.15,SE,135,3.4,12.3,85,0.05,,,0.67,0.00,VWS V14.01,2013-04-01 19:45:00,
2013-04-01 12:50:00,60.1,55.2,30.15,SSW,202,1.6,9.8,84,0.05,,,0.67,0.00,VWS V14.01,2013-04-01 19:50:00,
2013-04-01 12:55:00,60.6,56.1,30.15,South,180,3.8,9.8,85,0.05,,,0.67,0.00,VWS V14.01,2013-04-01 19:55:00,
2013-04-01 13:00:00,61.0,55.5,30.15,WSW,248,5.4,5.8,82,0.05,,,0.67,0.00,VWS V14.01,2013-04-01 20:00:00,
2013-04-01 13:05:00,61.2,55.3,30.15,South,180,3.6,9.6,81,0.05,,,0.67,0.00,VWS V14.01,2013-04-01 20:05:00,
2013-04-01 13:10:00,60.6,54.8,30.18,SE,135,3.4,10.5,81,0.05,,,0.67,0.00,VWS V14.01,2013-04-01 20:10:00,
2013-04-01 13:15:00,60.6,55.1,30.18,SSE,158,4.7,6.3,82,0.00,,,0.67,0.00,VWS V14.01,2013-04-01 20:15:00,
2013-04-01 13:20:00,60.6,54.8,30.18,South,180,2.5,11.9,81,0.00,,,0.67,0.00,VWS V14.01,2013-04-01 20:20:00,
2013-04-01 13:25:00,60.6,55.4,30.18,East,90,6.0,11.9,83,0.00,,,0.67,0.00,VWS V14.01,2013-04-01 20:25:00,
2013-04-01 13:30:00,60.6,55.4,30.18,SSE,158,3.1,6.3,83,0.00,,,0.67,0.00,VWS V14.01,2013-04-01 20:30:00,
2013-04-01 13:37:00,60.4,54.9,30.15,SE,135,3.1,8.7,82,0.00,,,0.67,0.00,VWS V14.01,2013-04-01 20:37:00,
2013-04-01 13:42:00,61.0,55.1,30.15,South,180,3.1,8.7,81,0.00,,,0.67,0.00,VWS V14.01,2013-04-01 20:42:00,
2013-04-01 13:45:00,60.6,54.8,30.15,SSE,158,7.6,8.7,81,0.00,,,0.67,0.00,VWS V14.01,2013-04-01 20:45:00,
2013-04-01 13:47:00,60.1,54.6,30.15,SW,225,4.9,10.1,82,0.00,,,0.67,0.00,VWS V14.01,2013-04-01 20:47:00,
2013-04-01 13:52:00,60.6,54.4,30.15,South,180,6.0,11.4,80,0.00,,,0.67,0.00,VWS V14.01,2013-04-01 20:52:00,
2013-04-01 13:57:00,61.0,54.8,30.15,SSE,158,5.8,14.8,80,0.00,,,0.67,0.00,VWS V14.01,2013-04-01 20:57:00,
2013-04-01 14:00:00,60.8,54.3,30.15,SSE,158,3.8,14.8,79,0.00,,,0.67,0.00,VWS V14.01,2013-04-01 21:00:00,
2013-04-01 14:02:00,61.2,55.0,30.15,SSW,202,7.2,8.1,80,0.00,,,0.67,0.00,VWS V14.01,2013-04-01 21:02:00,
2013-04-01 14:07:00,60.8,53.2,30.15,South,180,8.7,10.1,76,0.00,,,0.67,0.00,VWS V14.01,2013-04-01 21:07:00,
2013-04-01 14:12:00,61.7,55.5,30.15,SSE,158,2.5,10.1,80,0.00,,,0.67,0.00,VWS V14.01,2013-04-01 21:12:00,
2013-04-01 14:15:00,61.7,54.8,30.15,South,180,4.3,10.1,78,0.00,,,0.67,0.00,VWS V14.01,2013-04-01 21:15:00,
2013-04-01 14:17:00,61.2,54.3,30.15,South,180,4.0,12.3,78,0.00,,,0.67,0.00,VWS V14.01,2013-04-01 21:17:00,
2013-04-01 14:22:00,61.7,55.5,30.15,ESE,112,3.4,12.3,80,0.00,,,0.67,0.00,VWS V14.01,2013-04-01 21:22:00,
2013-04-01 14:28:00,61.7,54.8,30.15,South,180,3.8,12.3,78,0.00,,,0.67,0.00,VWS V14.01,2013-04-01 21:28:00,
2013-04-01 14:30:00,61.9,55.3,30.15,South,180,3.4,12.3,79,0.00,,,0.67,0.00,VWS V14.01,2013-04-01 21:30:00,
2013-04-01 14:33:00,61.0,54.4,30.15,SSW,202,7.4,8.5,79,0.00,,,0.67,0.00,VWS V14.01,2013-04-01 21:33:00,
2013-04-01 14:38:00,60.6,54.8,30.15,SSE,158,2.7,11.9,81,0.00,,,0.67,0.00,VWS V14.01,2013-04-01 21:38:00,
2013-04-01 14:43:00,60.4,54.6,30.15,WSW,248,0.0,11.9,81,0.00,,,0.67,0.00,VWS V14.01,2013-04-01 21:43:00,
2013-04-01 14:45:00,60.6,55.1,30.15,South,180,2.9,11.9,82,0.00,,,0.67,0.00,VWS V14.01,2013-04-01 21:45:00,
2013-04-01 14:48:00,60.6,54.8,30.15,SSE,158,3.4,9.6,81,0.00,,,0.67,0.00,VWS V14.01,2013-04-01 21:48:00,
2013-04-01 14:53:00,60.6,55.8,30.15,ESE,112,3.1,9.6,84,0.00,,,0.67,0.00,VWS V14.01,2013-04-01 21:53:00,
2013-04-01 14:58:00,60.6,55.8,30.15,SSE,158,4.3,9.6,84,0.00,,,0.67,0.00,VWS V14.01,2013-04-01 21:58:00,
2013-04-01 15:00:00,60.6,55.8,30.15,South,180,3.4,9.6,84,0.00,,,0.67,0.00,VWS V14.01,2013-04-01 22:00:00,
2013-04-01 15:04:00,60.8,55.9,30.15,WSW,248,2.0,6.5,84,0.00,,,0.67,0.00,VWS V14.01,2013-04-01 22:04:00,
2013-04-01 15:09:00,61.2,55.3,30.15,SSW,202,1.6,8.7,81,0.00,,,0.67,0.00,VWS V14.01,2013-04-01 22:09:00,
2013-04-01 15:14:00,61.3,54.8,30.15,SSE,158,3.6,8.7,79,0.00,,,0.67,0.00,VWS V14.01,2013-04-01 22:14:00,
2013-04-01 15:15:00,61.3,54.8,30.15,SE,135,6.5,8.7,79,0.00,,,0.67,0.00,VWS V14.01,2013-04-01 22:15:00,
2013-04-01 15:20:00,61.2,54.6,30.15,South,180,6.5,7.8,79,0.00,,,0.67,0.00,VWS V14.01,2013-04-01 22:20:00,
2013-04-01 15:25:00,61.3,54.8,30.15,SSE,158,5.8,9.8,79,0.00,,,0.67,0.00,VWS V14.01,2013-04-01 22:25:00,
2013-04-01 15:30:00,61.7,54.8,30.15,SSE,158,3.6,4.9,78,0.00,,,0.67,0.00,VWS V14.01,2013-04-01 22:30:00,
2013-04-01 15:35:00,61.3,54.1,30.15,SSE,158,4.0,8.5,77,0.00,,,0.67,0.00,VWS V14.01,2013-04-01 22:35:00,
2013-04-01 15:40:00,61.3,54.4,30.12,SSW,202,4.3,10.3,78,0.00,,,0.67,0.00,VWS V14.01,2013-04-01 22:40:00,
2013-04-01 15:45:00,61.5,54.2,30.12,SSW,202,10.1,10.3,77,0.00,,,0.67,0.00,VWS V14.01,2013-04-01 22:45:00,
2013-04-01 15:46:00,61.5,54.2,30.12,WNW,292,0.9,10.1,77,0.00,,,0.67,0.00,VWS V14.01,2013-04-01 22:46:00,
2013-04-01 15:51:00,61.3,53.7,30.12,South,180,3.8,10.1,76,0.00,,,0.67,0.00,VWS V14.01,2013-04-01 22:51:00,
2013-04-01 15:56:00,61.3,54.4,30.12,ESE,112,0.0,10.1,78,0.00,,,0.67,0.00,VWS V14.01,2013-04-01 22:56:00,
2013-04-01 16:00:00,61.5,53.5,30.12,SE,135,5.4,10.1,75,0.00,,,0.67,0.00,VWS V14.01,2013-04-01 23:00:00,
2013-04-01 16:01:00,61.3,53.7,30.12,South,180,5.6,7.6,76,0.00,,,0.67,0.00,VWS V14.01,2013-04-01 23:01:00,
2013-04-01 16:07:00,61.7,53.7,30.12,SSE,158,2.5,9.8,75,0.00,,,0.67,0.00,VWS V14.01,2013-04-01 23:07:00,
2013-04-01 16:12:00,61.7,53.3,30.12,ESE,112,5.6,9.8,74,0.00,,,0.67,0.00,VWS V14.01,2013-04-01 23:12:00,
2013-04-01 16:15:00,61.5,52.8,30.12,SW,225,3.1,9.8,73,0.00,,,0.67,0.00,VWS V14.01,2013-04-01 23:15:00,
2013-04-01 16:17:00,61.5,52.8,30.12,SW,225,5.4,7.4,73,0.00,,,0.67,0.00,VWS V14.01,2013-04-01 23:17:00,
2013-04-01 16:22:00,61.3,53.0,30.12,SSE,158,7.6,10.5,74,0.00,,,0.67,0.00,VWS V14.01,2013-04-01 23:22:00,
2013-04-01 16:27:00,61.9,53.5,30.12,SSW,202,3.4,10.5,74,0.00,,,0.67,0.00,VWS V14.01,2013-04-01 23:27:00,
2013-04-01 16:30:00,61.9,53.5,30.12,South,180,5.8,10.5,74,0.00,,,0.67,0.00,VWS V14.01,2013-04-01 23:30:00,
2013-04-01 16:32:00,61.3,53.0,30.12,SSW,202,5.4,9.6,74,0.00,,,0.67,0.00,VWS V14.01,2013-04-01 23:32:00,
2013-04-01 16:38:00,61.5,52.4,30.12,WNW,292,5.4,9.8,72,0.00,,,0.67,0.00,VWS V14.01,2013-04-01 23:38:00,
2013-04-01 16:43:00,61.9,52.8,30.12,South,180,2.9,9.8,72,0.00,,,0.67,0.00,VWS V14.01,2013-04-01 23:43:00,
2013-04-01 16:45:00,61.3,51.9,30.12,West,270,5.8,11.4,71,0.00,,,0.67,0.00,VWS V14.01,2013-04-01 23:45:00,
2013-04-01 16:51:00,61.2,51.7,30.12,South,180,4.9,7.4,71,0.00,,,0.67,0.00,VWS V14.01,2013-04-01 23:51:00,
2013-04-01 16:58:00,61.0,52.7,30.12,SSE,158,5.4,10.7,74,0.00,,,0.67,0.00,VWS V14.01,2013-04-01 23:58:00,
2013-04-01 17:00:00,61.2,52.1,30.12,South,180,4.3,10.7,72,0.00,,,0.67,0.00,VWS V14.01,2013-04-02 00:00:00,
2013-04-01 17:03:00,61.3,52.2,30.12,SW,225,8.5,11.9,72,0.00,,,0.67,0.00,VWS V14.01,2013-04-02 00:03:00,
2013-04-01 17:08:00,61.2,51.7,30.12,SSE,158,7.4,12.8,71,0.00,,,0.67,0.00,VWS V14.01,2013-04-02 00:08:00,
2013-04-01 17:13:00,60.8,51.7,30.12,South,180,12.1,12.8,72,0.00,,,0.67,0.00,VWS V14.01,2013-04-02 00:13:00,
2013-04-01 17:15:00,60.6,51.9,30.12,SSW,202,7.6,12.8,73,0.00,,,0.67,0.00,VWS V14.01,2013-04-02 00:15:00,
2013-04-01 17:18:00,60.4,52.1,30.12,SSE,158,6.5,9.6,74,0.00,,,0.67,0.00,VWS V14.01,2013-04-02 00:18:00,
2013-04-01 17:23:00,60.1,52.1,30.12,South,180,5.8,10.7,75,0.00,,,0.67,0.00,VWS V14.01,2013-04-02 00:23:00,
2013-04-01 17:28:00,59.9,52.3,30.12,SE,135,11.0,11.0,76,0.00,,,0.67,0.00,VWS V14.01,2013-04-02 00:28:00,
2013-04-01 17:30:00,59.7,51.8,30.12,SSW,202,4.0,11.0,75,0.00,,,0.67,0.00,VWS V14.01,2013-04-02 00:30:00,
2013-04-01 17:33:00,59.7,51.8,30.12,South,180,5.6,8.7,75,0.00,,,0.67,0.00,VWS V14.01,2013-04-02 00:33:00,
2013-04-01 17:39:00,59.2,51.6,30.15,South,180,7.8,13.2,76,0.00,,,0.67,0.00,VWS V14.01,2013-04-02 00:39:00,
2013-04-01 17:44:00,59.2,51.6,30.15,SSE,158,10.1,13.2,76,0.00,,,0.67,0.00,VWS V14.01,2013-04-02 00:44:00,
2013-04-01 17:45:00,59.2,51.6,30.15,SSW,202,4.9,13.2,76,0.00,,,0.67,0.00,VWS V14.01,2013-04-02 00:45:00,
2013-04-01 17:49:00,58.8,51.3,30.15,SSW,202,9.6,12.3,76,0.00,,,0.67,0.00,VWS V14.01,2013-04-02 00:49:00,
2013-04-01 17:54:00,58.6,51.8,30.12,SSW,202,7.2,13.2,78,0.00,,,0.67,0.00,VWS V14.01,2013-04-02 00:54:00,
2013-04-01 17:59:00,58.5,52.3,30.12,South,180,6.0,13.2,80,0.00,,,0.67,0.00,VWS V14.01,2013-04-02 00:59:00,
2013-04-01 18:00:00,58.5,52.3,30.12,SSE,158,4.9,13.2,80,0.00,,,0.67,0.00,VWS V14.01,2013-04-02 01:00:00,
2013-04-01 18:04:00,58.3,52.5,30.12,South,180,13.4,13.6,81,0.00,,,0.67,0.00,VWS V14.01,2013-04-02 01:04:00,
2013-04-01 18:09:00,58.1,52.6,30.12,SSW,202,7.8,13.6,82,0.00,,,0.67,0.00,VWS V14.01,2013-04-02 01:09:00,
2013-04-01 18:14:00,58.1,52.6,30.12,SSE,158,7.4,15.2,82,0.00,,,0.67,0.00,VWS V14.01,2013-04-02 01:14:00,
2013-04-01 18:15:00,58.1,52.6,30.12,SSW,202,10.1,15.2,82,0.00,,,0.67,0.00,VWS V14.01,2013-04-02 01:15:00,
2013-04-01 18:19:00,58.1,52.0,30.12,SSE,158,6.3,10.1,80,0.00,,,0.67,0.00,VWS V14.01,2013-04-02 01:19:00,
2013-04-01 18:24:00,57.9,52.1,30.12,SE,135,5.6,12.1,81,0.00,,,0.67,0.00,VWS V14.01,2013-04-02 01:24:00,
2013-04-01 18:29:00,57.7,52.6,30.12,SSW,202,8.7,14.5,83,0.00,,,0.67,0.00,VWS V14.01,2013-04-02 01:29:00,
2013-04-01 18:30:00,57.7,52.6,30.12,SSW,202,4.3,14.5,83,0.00,,,0.67,0.00,VWS V14.01,2013-04-02 01:30:00,
2013-04-01 18:34:00,57.6,52.4,30.12,South,180,7.2,8.7,83,0.00,,,0.67,0.00,VWS V14.01,2013-04-02 01:34:00,
2013-04-01 18:40:00,57.6,52.1,30.12,SW,225,6.3,10.1,82,0.00,,,0.67,0.00,VWS V14.01,2013-04-02 01:40:00,
2013-04-01 18:45:00,57.4,52.6,30.12,SSW,202,5.4,11.9,84,0.00,,,0.67,0.00,VWS V14.01,2013-04-02 01:45:00,
2013-04-01 18:50:00,57.2,52.4,30.12,SW,225,6.3,12.5,84,0.00,,,0.67,0.00,VWS V14.01,2013-04-02 01:50:00,
2013-04-01 18:55:00,57.0,52.9,30.15,SE,135,8.1,12.5,86,0.00,,,0.67,0.00,VWS V14.01,2013-04-02 01:55:00,
2013-04-01 19:00:00,57.0,52.6,30.15,South,180,6.5,10.5,85,0.00,,,0.67,0.00,VWS V14.01,2013-04-02 02:00:00,
2013-04-01 19:05:00,56.8,52.7,30.15,SSE,158,10.3,11.4,86,0.00,,,0.67,0.00,VWS V14.01,2013-04-02 02:05:00,
2013-04-01 19:11:00,56.7,52.8,30.15,SW,225,7.8,12.5,87,0.00,,,0.67,0.00,VWS V14.01,2013-04-02 02:11:00,
2013-04-01 19:15:00,56.7,52.5,30.15,SSW,202,9.8,12.5,86,0.00,,,0.67,0.00,VWS V14.01,2013-04-02 02:15:00,
2013-04-01 19:16:00,56.7,52.5,30.15,South,180,4.0,9.8,86,0.00,,,0.67,0.00,VWS V14.01,2013-04-02 02:16:00,
2013-04-01 19:21:00,56.5,52.7,30.15,SW,225,8.5,9.8,87,0.00,,,0.67,0.00,VWS V14.01,2013-04-02 02:21:00,
2013-04-01 19:26:00,56.3,52.5,30.15,South,180,7.4,11.0,87,0.00,,,0.67,0.00,VWS V14.01,2013-04-02 02:26:00,
2013-04-01 19:30:00,56.3,52.5,30.15,SSW,202,6.0,11.0,87,0.00,,,0.67,0.00,VWS V14.01,2013-04-02 02:30:00,
2013-04-01 19:32:00,56.1,52.3,30.15,SE,135,6.3,10.1,87,0.00,,,0.67,0.00,VWS V14.01,2013-04-02 02:32:00,
2013-04-01 19:37:00,56.3,52.2,30.15,SW,225,6.0,12.3,86,0.00,,,0.67,0.00,VWS V14.01,2013-04-02 02:37:00,
2013-04-01 19:42:00,56.1,52.3,30.15,South,180,5.4,12.3,87,0.00,,,0.67,0.00,VWS V14.01,2013-04-02 02:42:00,
2013-04-01 19:45:00,55.9,52.4,30.15,South,180,5.4,12.3,88,0.00,,,0.67,0.00,VWS V14.01,2013-04-02 02:45:00,
2013-04-01 19:48:00,55.9,52.4,30.15,SSW,202,7.4,9.6,88,0.00,,,0.67,0.00,VWS V14.01,2013-04-02 02:48:00,
2013-04-01 19:53:00,55.9,52.8,30.15,SSW,202,6.9,9.6,89,0.00,,,0.67,0.00,VWS V14.01,2013-04-02 02:53:00,
2013-04-01 19:58:00,55.8,52.9,30.15,SSW,202,5.4,9.6,90,0.00,,,0.67,0.00,VWS V14.01,2013-04-02 02:58:00,
2013-04-01 20:00:00,55.8,52.9,30.15,SSW,202,3.8,10.1,90,0.00,,,0.67,0.00,VWS V14.01,2013-04-02 03:00:00,
2013-04-01 20:03:00,55.6,52.7,30.15,SW,225,8.7,8.7,90,0.00,,,0.67,0.00,VWS V14.01,2013-04-02 03:03:00,
2013-04-01 20:09:00,55.6,52.7,30.15,South,180,3.1,8.7,90,0.00,,,0.67,0.00,VWS V14.01,2013-04-02 03:09:00,
2013-04-01 20:14:00,55.6,52.7,30.15,SE,135,7.4,8.7,90,0.00,,,0.67,0.00,VWS V14.01,2013-04-02 03:14:00,
2013-04-01 20:15:00,55.4,52.5,30.15,South,180,5.6,8.7,90,0.00,,,0.67,0.00,VWS V14.01,2013-04-02 03:15:00,
2013-04-01 20:19:00,55.4,52.5,30.15,SSW,202,9.4,9.4,90,0.00,,,0.67,0.00,VWS V14.01,2013-04-02 03:19:00,
2013-04-01 20:24:00,55.4,52.5,30.18,SW,225,1.3,9.4,90,0.00,,,0.67,0.00,VWS V14.01,2013-04-02 03:24:00,
2013-04-01 20:29:00,55.4,52.5,30.18,South,180,3.6,12.3,90,0.00,,,0.67,0.00,VWS V14.01,2013-04-02 03:29:00,
2013-04-01 20:30:00,55.2,52.3,30.18,South,180,4.0,12.3,90,0.00,,,0.67,0.00,VWS V14.01,2013-04-02 03:30:00,
2013-04-01 20:34:00,55.2,52.3,30.18,SSE,158,7.4,9.4,90,0.00,,,0.67,0.00,VWS V14.01,2013-04-02 03:34:00,
2013-04-01 20:39:00,55.2,52.6,30.18,SSW,202,3.6,9.4,91,0.00,,,0.67,0.00,VWS V14.01,2013-04-02 03:39:00,
2013-04-01 20:44:00,55.0,52.5,30.18,SW,225,4.3,9.4,91,0.00,,,0.67,0.00,VWS V14.01,2013-04-02 03:44:00,
2013-04-01 20:45:00,55.0,52.5,30.18,SSW,202,6.5,9.4,91,0.00,,,0.67,0.00,VWS V14.01,2013-04-02 03:45:00,
2013-04-01 20:49:00,55.2,52.6,30.18,SSE,158,2.7,8.7,91,0.00,,,0.67,0.00,VWS V14.01,2013-04-02 03:49:00,
2013-04-01 20:55:00,55.2,52.6,30.21,SSW,202,4.3,10.5,91,0.00,,,0.67,0.00,VWS V14.01,2013-04-02 03:55:00,
2013-04-01 21:00:00,55.0,52.5,30.21,SSW,202,5.8,10.5,91,0.00,,,0.67,0.00,VWS V14.01,2013-04-02 04:00:00,
2013-04-01 21:01:00,55.0,52.5,30.21,SW,225,4.3,5.8,91,0.00,,,0.67,0.00,VWS V14.01,2013-04-02 04:01:00,
2013-04-01 21:06:00,54.9,52.3,30.21,SW,225,6.3,6.5,91,0.00,,,0.67,0.00,VWS V14.01,2013-04-02 04:06:00,
2013-04-01 21:11:00,54.9,52.0,30.18,South,180,4.9,8.5,90,0.00,,,0.67,0.00,VWS V14.01,2013-04-02 04:11:00,
2013-04-01 21:15:00,54.9,52.0,30.18,SSE,158,5.8,8.5,90,0.00,,,0.67,0.00,VWS V14.01,2013-04-02 04:15:00,
2013-04-01 21:16:00,54.7,51.8,30.18,SSW,202,3.4,5.8,90,0.00,,,0.67,0.00,VWS V14.01,2013-04-02 04:16:00,
2013-04-01 21:21:00,54.7,51.5,30.18,SSW,202,4.7,8.5,89,0.00,,,0.67,0.00,VWS V14.01,2013-04-02 04:21:00,
2013-04-01 21:27:00,54.5,51.3,30.18,South,180,0.0,8.5,89,0.00,,,0.67,0.00,VWS V14.01,2013-04-02 04:27:00,
2013-04-01 21:30:00,54.1,51.3,30.18,South,180,2.9,8.5,90,0.00,,,0.67,0.00,VWS V14.01,2013-04-02 04:30:00,
2013-04-01 21:32:00,54.1,51.3,30.18,SSE,158,4.0,4.7,90,0.00,,,0.67,0.00,VWS V14.01,2013-04-02 04:32:00,
2013-04-01 21:37:00,54.3,51.2,30.18,West,270,0.0,6.3,89,0.00,,,0.67,0.00,VWS V14.01,2013-04-02 04:37:00,
2013-04-01 21:42:00,54.1,51.0,30.18,SSW,202,6.0,6.3,89,0.00,,,0.67,0.00,VWS V14.01,2013-04-02 04:42:00,
2013-04-01 21:45:00,54.3,51.2,30.18,SSW,202,5.8,6.3,89,0.00,,,0.67,0.00,VWS V14.01,2013-04-02 04:45:00,
2013-04-01 21:47:00,54.3,50.8,30.18,South,180,5.8,5.8,88,0.00,,,0.67,0.00,VWS V14.01,2013-04-02 04:47:00,
2013-04-01 21:52:00,54.1,51.0,30.18,SSW,202,5.4,7.4,89,0.00,,,0.67,0.00,VWS V14.01,2013-04-02 04:52:00,
2013-04-01 21:57:00,54.1,51.0,30.18,SSW,202,2.0,7.4,89,0.00,,,0.67,0.00,VWS V14.01,2013-04-02 04:57:00,
2013-04-01 22:00:00,54.0,50.8,30.18,South,180,0.9,8.5,89,0.00,,,0.67,0.00,VWS V14.01,2013-04-02 05:00:00,
2013-04-01 22:03:00,54.0,51.1,30.18,South,180,3.4,4.3,90,0.00,,,0.67,0.00,VWS V14.01,2013-04-02 05:03:00,
2013-04-01 22:08:00,53.6,51.3,30.18,South,180,2.7,6.0,92,0.00,,,0.67,0.00,VWS V14.01,2013-04-02 05:08:00,
2013-04-01 22:13:00,53.4,51.5,30.18,South,180,0.9,6.7,93,0.00,,,0.67,0.00,VWS V14.01,2013-04-02 05:13:00,
2013-04-01 22:15:00,53.2,51.3,30.18,SSW,202,0.0,6.7,93,0.00,,,0.67,0.00,VWS V14.01,2013-04-02 05:15:00,
2013-04-01 22:18:00,53.1,51.1,30.18,SSE,158,0.0,0.0,93,0.00,,,0.67,0.00,VWS V14.01,2013-04-02 05:18:00,
2013-04-01 22:23:00,53.1,51.4,30.18,SW,225,1.1,3.4,94,0.00,,,0.67,0.00,VWS V14.01,2013-04-02 05:23:00,
2013-04-01 22:28:00,52.9,51.2,30.18,SW,225,2.2,3.6,94,0.00,,,0.67,0.00,VWS V14.01,2013-04-02 05:28:00,
2013-04-01 22:30:00,52.9,51.2,30.18,SSW,202,2.0,3.6,94,0.00,,,0.67,0.00,VWS V14.01,2013-04-02 05:30:00,
2013-04-01 22:33:00,52.7,51.0,30.18,SSW,202,0.9,2.2,94,0.00,,,0.67,0.00,VWS V14.01,2013-04-02 05:33:00,
2013-04-01 22:38:00,53.1,51.1,30.18,SSE,158,5.8,5.8,93,0.00,,,0.67,0.00,VWS V14.01,2013-04-02 05:38:00,
2013-04-01 22:43:00,53.2,51.0,30.18,West,270,0.0,5.8,92,0.00,,,0.67,0.00,VWS V14.01,2013-04-02 05:43:00,
2013-04-01 22:45:00,53.2,51.0,30.18,South,180,2.5,5.8,92,0.00,,,0.67,0.00,VWS V14.01,2013-04-02 05:45:00,
2013-04-01 22:48:00,53.1,50.8,30.18,NNW,338,0.0,2.5,92,0.00,,,0.67,0.00,VWS V14.01,2013-04-02 05:48:00,
2013-04-01 22:53:00,52.5,50.8,30.18,South,180,0.0,2.5,94,0.00,,,0.67,0.00,VWS V14.01,2013-04-02 05:53:00,
2013-04-01 22:59:00,51.8,50.7,30.18,SSW,202,0.0,2.5,96,0.00,,,0.67,0.00,VWS V14.01,2013-04-02 05:59:00,
2013-04-01 23:00:00,51.6,50.5,30.18,SSW,202,0.0,2.5,96,0.00,,,0.67,0.00,VWS V14.01,2013-04-02 06:00:00,
2013-04-01 23:04:00,51.3,50.7,30.18,SW,225,2.5,2.5,98,0.00,,,0.67,0.00,VWS V14.01,2013-04-02 06:04:00,
2013-04-01 23:09:00,51.1,50.5,30.18,SSW,202,2.9,3.4,98,0.00,,,0.67,0.00,VWS V14.01,2013-04-02 06:09:00,
2013-04-01 23:14:00,51.1,50.5,30.18,SW,225,3.1,3.6,98,0.00,,,0.67,0.00,VWS V14.01,2013-04-02 06:14:00,
2013-04-01 23:15:00,51.1,50.5,30.18,SSW,202,2.9,3.6,98,0.00,,,0.67,0.00,VWS V14.01,2013-04-02 06:15:00,
2013-04-01 23:19:00,50.7,50.5,30.18,SSW,202,2.9,3.4,99,0.00,,,0.67,0.00,VWS V14.01,2013-04-02 06:19:00,
2013-04-01 23:24:00,50.5,50.5,30.18,SSW,202,2.7,3.4,100,0.00,,,0.67,0.00,VWS V14.01,2013-04-02 06:24:00,
2013-04-01 23:29:00,50.2,50.2,30.18,SSW,202,2.5,3.4,100,0.00,,,0.67,0.00,VWS V14.01,2013-04-02 06:29:00,
2013-04-01 23:30:00,50.2,50.2,30.18,SSW,202,2.5,3.4,100,0.00,,,0.67,0.00,VWS V14.01,2013-04-02 06:30:00,
2013-04-01 23:34:00,50.2,50.2,30.18,South,180,2.0,2.9,100,0.00,,,0.67,0.00,VWS V14.01,2013-04-02 06:34:00,
2013-04-01 23:39:00,50.2,50.2,30.18,SSW,202,0.0,2.9,100,0.00,,,0.67,0.00,VWS V14.01,2013-04-02 06:39:00,
2013-04-01 23:44:00,50.0,50.0,30.18,South,180,2.0,2.9,100,0.00,,,0.67,0.00,VWS V14.01,2013-04-02 06:44:00,
2013-04-01 23:45:00,50.0,50.0,30.18,SSW,202,2.0,2.9,100,0.00,,,0.67,0.00,VWS V14.01,2013-04-02 06:45:00,
2013-04-01 23:50:00,50.0,50.0,30.18,SSW,202,2.5,2.7,100,0.00,,,0.67,0.00,VWS V14.01,2013-04-02 06:50:00,
2013-04-01 23:55:00,50.2,50.2,30.18,SW,225,3.8,3.8,100,0.00,,,0.67,0.00,VWS V14.01,2013-04-02 06:55:00,